Time;durP1;ratioP1;P1;durP2;ratioP2;P2;SDS_P1;SDS_P2;PMS_P1;PMS_P2;Temp;Humidity;BMP_temperature;BMP_pressure;BME280_temperature;BME280_humidity;BME280_pressure;Samples;Min_cycle;Max_cycle;Signal;HPM_P1;HPM_P2
2024/01/06 05:30:48;;;;;;;0.10;0.10;;;6.80;88.50;;;;;;5810269;22;20054;-79
2024/01/06 05:33:16;;;;;;;0.10;0.10;;;6.80;88.40;;;;;;4990293;28;20030;-79
2024/01/06 05:35:42;;;;;;;0.10;0.10;;;6.80;88.20;;;;;;4976152;28;20057;-79
2024/01/06 05:38:07;;;;;;;0.10;0.10;;;6.80;88.30;;;;;;4994620;28;20026;-79
2024/01/06 05:40:33;;;;;;;0.10;0.10;;;6.80;88.30;;;;;;4988105;28;20031;-79
2024/01/06 05:42:59;;;;;;;0.10;0.10;;;6.80;87.90;;;;;;4994404;28;20503;-79
2024/01/06 05:45:24;;;;;;;0.10;0.10;;;6.80;88.00;;;;;;5001616;28;20051;-79
2024/01/06 05:47:50;;;;;;;0.10;0.10;;;6.80;88.00;;;;;;4974985;28;20548;-79
2024/01/06 05:50:16;;;;;;;0.10;0.10;;;6.80;87.90;;;;;;4984118;28;20069;-78
2024/01/06 05:52:42;;;;;;;0.10;0.10;;;6.90;87.90;;;;;;4975377;28;20166;-79
2024/01/06 05:55:11;;;;;;;0.10;0.10;;;6.80;87.90;;;;;;4957798;28;20063;-79
2024/01/06 05:57:36;;;;;;;0.10;0.10;;;6.90;87.80;;;;;;4974908;28;20030;-78
2024/01/06 06:00:02;;;;;;;0.10;0.10;;;6.90;87.60;;;;;;4980201;28;20394;-79
2024/01/06 06:02:28;;;;;;;0.10;0.10;;;6.80;87.80;;;;;;4985462;28;20030;-78
2024/01/06 06:04:54;;;;;;;0.10;0.10;;;6.90;88.00;;;;;;4981342;28;20478;-78
2024/01/06 06:07:20;;;;;;;0.10;0.10;;;6.90;88.00;;;;;;4994231;28;20050;-78
2024/01/06 06:09:48;;;;;;;0.10;0.10;;;6.90;87.50;;;;;;4978699;28;20054;-79
2024/01/06 06:12:14;;;;;;;0.10;0.10;;;6.90;87.50;;;;;;4977054;28;20062;-78
2024/01/06 06:14:40;;;;;;;0.10;0.10;;;6.80;87.40;;;;;;4979099;28;20475;-78
2024/01/06 06:17:06;;;;;;;0.10;0.10;;;6.80;87.10;;;;;;4978993;28;20046;-79
2024/01/06 06:19:31;;;;;;;0.10;0.10;;;6.70;87.40;;;;;;4977531;28;20031;-78
2024/01/06 06:21:57;;;;;;;0.10;0.10;;;6.70;87.30;;;;;;4977848;28;20606;-78
2024/01/06 06:24:23;;;;;;;0.10;0.10;;;6.70;87.30;;;;;;4978777;28;20101;-79
2024/01/06 06:26:48;;;;;;;0.10;0.10;;;6.60;87.40;;;;;;4979051;28;20545;-79
2024/01/06 06:29:14;;;;;;;0.10;0.10;;;6.60;87.30;;;;;;4978791;28;20054;-78
2024/01/06 06:31:39;;;;;;;0.10;0.10;;;6.60;87.30;;;;;;4978877;28;20147;-78
2024/01/06 06:34:05;;;;;;;0.10;0.10;;;6.50;87.30;;;;;;4993833;28;20029;-78
2024/01/06 06:36:31;;;;;;;0.10;0.10;;;6.40;87.40;;;;;;4991055;28;20023;-78
2024/01/06 06:38:58;;;;;;;0.10;0.10;;;6.40;87.50;;;;;;4977456;28;20027;-78
2024/01/06 06:41:24;;;;;;;0.10;0.10;;;6.40;87.50;;;;;;4971636;28;20122;-78
2024/01/06 06:43:50;;;;;;;0.10;0.10;;;6.40;87.60;;;;;;4994308;28;20034;-78
2024/01/06 06:46:16;;;;;;;0.10;0.10;;;6.40;87.60;;;;;;4998128;28;20026;-79
2024/01/06 06:48:42;;;;;;;0.10;0.10;;;6.40;87.80;;;;;;4989652;28;20019;-78
2024/01/06 06:51:07;;;;;;;0.10;0.10;;;6.40;87.70;;;;;;4975115;28;21096;-79
2024/01/06 06:53:33;;;;;;;0.10;0.10;;;6.50;87.70;;;;;;4977843;28;20670;-79
2024/01/06 06:55:59;;;;;;;0.10;0.10;;;6.50;87.70;;;;;;4977869;28;20034;-77
2024/01/06 06:58:24;;;;;;;0.10;0.10;;;6.60;87.70;;;;;;4983582;28;20111;-76
2024/01/06 07:00:50;;;;;;;0.10;0.10;;;6.60;87.50;;;;;;4984727;28;20030;-79
2024/01/06 07:03:16;;;;;;;0.10;0.10;;;6.60;87.70;;;;;;4996175;28;20041;-77
2024/01/06 07:05:41;;;;;;;0.10;0.10;;;6.60;87.60;;;;;;4975861;28;20026;-79
2024/01/06 07:08:07;;;;;;;0.10;0.10;;;6.70;87.50;;;;;;4988470;28;20062;-76
2024/01/06 07:10:33;;;;;;;0.10;0.10;;;6.70;87.50;;;;;;4997174;28;20022;-76
2024/01/06 07:12:58;;;;;;;0.10;0.10;;;6.70;87.40;;;;;;4975962;28;20092;-76
2024/01/06 07:15:24;;;;;;;0.10;0.10;;;6.70;87.30;;;;;;4997017;28;20113;-74
2024/01/06 07:17:49;;;;;;;0.10;0.10;;;6.70;87.30;;;;;;4996825;28;20029;-75
2024/01/06 07:20:16;;;;;;;0.10;0.10;;;6.60;87.60;;;;;;4983262;28;20049;-76
2024/01/06 07:22:41;;;;;;;0.10;0.10;;;6.70;87.70;;;;;;5006079;28;20018;-77
2024/01/06 07:25:07;;;;;;;0.10;0.10;;;6.70;87.50;;;;;;4989486;28;20029;-76
2024/01/06 07:27:33;;;;;;;0.10;0.10;;;6.60;87.30;;;;;;4989966;28;20076;-79
2024/01/06 07:29:59;;;;;;;0.10;0.10;;;6.60;87.40;;;;;;5002706;28;20029;-77
2024/01/06 07:32:24;;;;;;;0.10;0.10;;;6.50;87.20;;;;;;4982940;28;20498;-77
2024/01/06 07:34:50;;;;;;;0.10;0.10;;;6.50;87.50;;;;;;4970095;28;20086;-81
2024/01/06 07:37:16;;;;;;;0.10;0.10;;;6.40;87.50;;;;;;4958451;29;20036;-77
2024/01/06 07:39:42;;;;;;;0.10;0.10;;;6.40;87.50;;;;;;4974493;28;20030;-77
2024/01/06 07:42:08;;;;;;;0.10;0.10;;;6.30;87.50;;;;;;4979887;28;20105;-79
2024/01/06 07:44:34;;;;;;;0.10;0.10;;;6.30;87.50;;;;;;4975551;28;20023;-82
2024/01/06 07:47:01;;;;;;;0.10;0.10;;;6.30;87.50;;;;;;4976228;28;20027;-78
2024/01/06 07:49:27;;;;;;;0.10;0.10;;;6.20;87.50;;;;;;4977152;28;20090;-78
2024/01/06 07:51:53;;;;;;;0.13;0.10;;;6.20;87.50;;;;;;4973701;28;20594;-78
2024/01/06 07:54:18;;;;;;;0.10;0.10;;;6.20;87.70;;;;;;4964008;28;21873;-78
2024/01/06 07:56:45;;;;;;;0.10;0.10;;;6.20;87.70;;;;;;4966753;28;20026;-79
2024/01/06 07:59:11;;;;;;;0.10;0.10;;;6.20;87.70;;;;;;4968255;28;20106;-78
2024/01/06 08:01:37;;;;;;;0.10;0.10;;;6.10;87.70;;;;;;4973182;28;20633;-80
2024/01/06 08:04:03;;;;;;;0.10;0.10;;;6.10;87.70;;;;;;4972689;28;20038;-80
2024/01/06 08:06:29;;;;;;;0.10;0.10;;;6.10;87.60;;;;;;4973673;28;20031;-80
2024/01/06 08:08:54;;;;;;;0.10;0.10;;;6.10;87.50;;;;;;4975459;28;20026;-81
2024/01/06 08:11:20;;;;;;;0.10;0.10;;;6.20;87.60;;;;;;4975980;28;20035;-81
2024/01/06 08:13:46;;;;;;;0.10;0.10;;;6.10;87.50;;;;;;4976700;28;20031;-81
2024/01/06 08:16:12;;;;;;;0.10;0.10;;;6.10;87.50;;;;;;4994820;28;20027;-81
2024/01/06 08:18:38;;;;;;;0.10;0.10;;;6.10;87.50;;;;;;4970391;28;20024;-79
2024/01/06 08:21:04;;;;;;;0.10;0.10;;;6.10;87.40;;;;;;4969326;28;20031;-81
2024/01/06 08:23:30;;;;;;;0.10;0.10;;;6.10;87.40;;;;;;4967428;28;20025;-81
2024/01/06 08:25:56;;;;;;;0.10;0.10;;;6.10;87.50;;;;;;4973674;28;20031;-81
2024/01/06 08:28:23;;;;;;;0.10;0.10;;;6.10;87.50;;;;;;4967484;28;20026;-81
2024/01/06 08:30:49;;;;;;;0.10;0.10;;;6.10;87.40;;;;;;4973289;28;20066;-81
2024/01/06 08:33:14;;;;;;;0.10;0.10;;;6.10;87.50;;;;;;4966846;28;20114;-81
2024/01/06 08:35:40;;;;;;;0.10;0.10;;;6.20;87.40;;;;;;4974360;28;20066;-81
2024/01/06 08:38:09;;;;;;;0.20;0.20;;;6.20;87.40;;;;;;4983368;28;20034;-80
2024/01/06 08:40:35;;;;;;;0.10;0.10;;;6.20;87.30;;;;;;4972555;28;20114;-81
2024/01/06 08:43:02;;;;;;;0.10;0.10;;;6.20;87.30;;;;;;4965691;28;20037;-81
2024/01/06 08:45:28;;;;;;;0.13;0.13;;;6.30;87.40;;;;;;4963327;28;20110;-81
2024/01/06 08:47:54;;;;;;;0.10;0.10;;;6.30;87.40;;;;;;4988170;28;20082;-81
2024/01/06 08:50:19;;;;;;;0.10;0.10;;;6.30;87.40;;;;;;4984541;28;20129;-85
2024/01/06 08:52:45;;;;;;;0.10;0.10;;;6.40;87.40;;;;;;4980686;28;20037;-83
2024/01/06 08:55:10;;;;;;;0.10;0.10;;;6.50;87.40;;;;;;4973039;28;20588;-83
2024/01/06 08:57:36;;;;;;;0.10;0.10;;;6.60;87.30;;;;;;4974145;28;20030;-85
2024/01/06 09:00:03;;;;;;;0.10;0.10;;;6.60;87.40;;;;;;4974787;28;20035;-82
2024/01/06 09:02:29;;;;;;;0.17;0.17;;;6.60;87.30;;;;;;4974265;28;20034;-84
2024/01/06 09:05:03;;;;;;;0.10;0.10;;;6.70;87.30;;;;;;4974770;28;20186;-84
2024/01/06 09:07:28;;;;;;;0.10;0.10;;;6.70;87.40;;;;;;4972969;28;20034;-85
2024/01/06 09:09:54;;;;;;;0.10;0.10;;;6.70;87.30;;;;;;4974668;28;20035;-86
2024/01/06 09:12:20;;;;;;;0.10;0.10;;;6.70;87.40;;;;;;4973041;28;20027;-86
2024/01/06 09:14:48;;;;;;;0.10;0.10;;;6.70;87.50;;;;;;4964515;28;20031;-85
2024/01/06 09:17:14;;;;;;;0.10;0.10;;;6.70;87.50;;;;;;4977076;28;20042;-86
2024/01/06 09:19:45;;;;;;;0.10;0.10;;;6.80;87.50;;;;;;4976905;28;20034;-86
2024/01/06 09:22:10;;;;;;;0.10;0.10;;;7.00;87.60;;;;;;4972014;28;20051;-86
2024/01/06 09:24:36;;;;;;;0.30;0.30;;;7.30;87.20;;;;;;4976080;28;20042;-85
2024/01/06 09:27:03;;;;;;;0.20;0.20;;;7.70;86.70;;;;;;4977236;28;20050;-84
2024/01/06 09:29:29;;;;;;;0.15;0.15;;;7.80;86.40;;;;;;4975605;28;20023;-84
2024/01/06 09:31:55;;;;;;;0.10;0.10;;;7.80;86.30;;;;;;4975675;28;20109;-84
2024/01/06 09:34:21;;;;;;;0.10;0.10;;;7.80;86.30;;;;;;4975113;28;20050;-83
2024/01/06 09:36:46;;;;;;;0.10;0.10;;;7.80;86.20;;;;;;4976227;28;20042;-86
2024/01/06 09:39:13;;;;;;;0.10;0.10;;;7.80;86.30;;;;;;4974439;28;20035;-85
2024/01/06 09:41:38;;;;;;;0.10;0.10;;;7.90;86.20;;;;;;5006521;28;20061;-86
2024/01/06 09:44:04;;;;;;;0.10;0.10;;;8.10;85.80;;;;;;5007226;28;20034;-83
2024/01/06 09:46:31;;;;;;;0.10;0.10;;;8.20;85.80;;;;;;4971835;28;20027;-83
2024/01/06 09:48:58;;;;;;;0.10;0.10;;;8.20;85.60;;;;;;4957378;29;20859;-83
2024/01/06 09:51:28;;;;;;;0.10;0.10;;;8.10;85.70;;;;;;4961224;28;20794;-84
2024/01/06 09:53:58;;;;;;;0.10;0.10;;;8.00;86.00;;;;;;4976199;28;20410;-84
2024/01/06 09:56:45;;;;;;;0.10;0.10;;;7.90;85.80;;;;;;4967757;28;20111;-84
2024/01/06 09:59:11;;;;;;;0.10;0.10;;;7.90;86.20;;;;;;4975031;28;20593;-84
2024/01/06 10:01:36;;;;;;;0.10;0.10;;;7.90;86.30;;;;;;4976053;28;20077;-83
2024/01/06 10:04:19;;;;;;;0.10;0.10;;;7.80;86.20;;;;;;4975743;28;20027;-84
2024/01/06 10:06:47;;;;;;;0.10;0.10;;;7.70;86.50;;;;;;4963321;28;20399;-84
2024/01/06 10:09:16;;;;;;;0.10;0.10;;;7.70;86.60;;;;;;4969225;28;20518;-84
2024/01/06 10:11:43;;;;;;;0.10;0.10;;;7.70;86.50;;;;;;4963053;28;20022;-84
2024/01/06 10:14:08;;;;;;;0.10;0.10;;;7.70;86.70;;;;;;4976146;28;20023;-84
2024/01/06 10:16:35;;;;;;;0.10;0.10;;;7.80;86.70;;;;;;4974796;28;20027;-84
2024/01/06 10:19:01;;;;;;;0.17;0.17;;;7.90;86.80;;;;;;4972232;28;20031;-82
2024/01/06 10:21:27;;;;;;;0.10;0.10;;;7.90;86.70;;;;;;4961022;28;20019;-80
2024/01/06 10:23:56;;;;;;;0.10;0.10;;;8.00;86.50;;;;;;4991808;28;20451;-86
2024/01/06 10:26:22;;;;;;;0.10;0.10;;;8.00;86.40;;;;;;4975990;28;20102;-87
2024/01/06 10:28:50;;;;;;;0.10;0.10;;;8.10;86.50;;;;;;4976605;28;20463;-78
2024/01/06 10:31:15;;;;;;;0.10;0.10;;;8.20;86.30;;;;;;4981012;28;20049;-79
2024/01/06 10:33:41;;;;;;;0.10;0.10;;;8.30;86.10;;;;;;4994571;28;20065;-84
2024/01/06 10:36:08;;;;;;;0.10;0.10;;;8.50;85.50;;;;;;4977885;28;20027;-83
2024/01/06 10:38:34;;;;;;;0.10;0.10;;;8.70;85.50;;;;;;4978539;28;20030;-82
2024/01/06 10:41:09;;;;;;;0.10;0.10;;;8.70;85.40;;;;;;4992172;28;20458;-82
2024/01/06 10:43:38;;;;;;;0.10;0.10;;;8.70;84.80;;;;;;4973343;28;20066;-81
2024/01/06 10:46:04;;;;;;;0.10;0.10;;;8.70;84.90;;;;;;4958489;28;20023;-82
2024/01/06 10:48:34;;;;;;;0.10;0.10;;;8.70;84.60;;;;;;4978876;28;20019;-80
2024/01/06 10:51:02;;;;;;;0.10;0.10;;;8.70;84.70;;;;;;4980477;28;20034;-80
2024/01/06 10:53:27;;;;;;;0.10;0.10;;;8.80;84.90;;;;;;4998580;28;20454;-83
2024/01/06 10:55:54;;;;;;;0.10;0.10;;;8.90;84.60;;;;;;4996906;28;20049;-81
2024/01/06 10:58:21;;;;;;;0.10;0.10;;;8.80;84.30;;;;;;4996862;28;20030;-82
2024/01/06 11:00:47;;;;;;;0.10;0.10;;;8.70;84.40;;;;;;4991466;28;20053;-81
2024/01/06 11:03:14;;;;;;;0.10;0.10;;;8.60;84.30;;;;;;4998851;28;20077;-81
2024/01/06 11:05:42;;;;;;;0.10;0.10;;;8.60;84.70;;;;;;5006041;28;20501;-82
2024/01/06 11:08:08;;;;;;;0.10;0.10;;;8.60;84.60;;;;;;5005495;28;20034;-80
2024/01/06 11:10:36;;;;;;;0.10;0.10;;;8.60;84.50;;;;;;5006778;28;20445;-80
2024/01/06 11:13:13;;;;;;;0.10;0.10;;;8.70;84.70;;;;;;4988624;28;20041;-81
2024/01/06 11:15:49;;;;;;;0.10;0.10;;;8.80;84.20;;;;;;5003955;28;20027;-83
2024/01/06 11:18:40;;;;;;;0.10;0.10;;;8.80;83.50;;;;;;5004299;28;20031;-85
2024/01/06 11:21:21;;;;;;;0.10;0.10;;;8.80;83.40;;;;;;5009915;28;20041;-82
2024/01/06 11:24:07;;;;;;;0.10;0.10;;;8.80;83.30;;;;;;5013886;28;20105;-82
2024/01/06 11:26:33;;;;;;;0.10;0.10;;;8.90;82.60;;;;;;4995556;28;20038;-82
2024/01/06 11:29:00;;;;;;;0.10;0.10;;;8.90;83.00;;;;;;5006679;28;20022;-82
2024/01/06 11:31:32;;;;;;;0.10;0.10;;;9.00;82.70;;;;;;4999937;28;20058;-82
2024/01/06 11:34:14;;;;;;;0.10;0.10;;;9.10;82.60;;;;;;5006730;28;20030;-83
2024/01/06 11:36:40;;;;;;;0.10;0.10;;;9.20;82.60;;;;;;5011835;28;20053;-85
2024/01/06 11:39:06;;;;;;;0.10;0.10;;;9.20;82.10;;;;;;4987214;28;20438;-86
2024/01/06 11:41:51;;;;;;;0.10;0.10;;;9.30;82.30;;;;;;4976846;28;20527;-84
2024/01/06 11:44:23;;;;;;;0.10;0.10;;;9.30;81.40;;;;;;5014616;28;20025;-89
2024/01/06 11:46:51;;;;;;;0.10;0.10;;;9.20;80.70;;;;;;4996836;28;20042;-82
2024/01/06 11:49:20;;;;;;;0.10;0.10;;;9.30;80.40;;;;;;5006567;28;20067;-82
2024/01/06 11:51:46;;;;;;;0.10;0.10;;;9.30;81.40;;;;;;4978660;28;20049;-90
2024/01/06 11:54:12;;;;;;;0.10;0.10;;;9.50;81.40;;;;;;4978815;28;20023;-86
2024/01/06 11:56:38;;;;;;;0.10;0.10;;;9.50;80.50;;;;;;4979277;28;20034;-88
2024/01/06 11:59:04;;;;;;;0.10;0.10;;;9.50;80.40;;;;;;4998108;28;20106;-89
2024/01/06 12:01:40;;;;;;;0.10;0.10;;;9.50;80.10;;;;;;4983704;28;20503;-86
2024/01/06 12:04:06;;;;;;;0.10;0.10;;;9.50;79.90;;;;;;5009299;28;20485;-87
2024/01/06 12:06:32;;;;;;;0.10;0.10;;;9.40;79.50;;;;;;4978817;28;20042;-88
2024/01/06 12:09:14;;;;;;;0.10;0.10;;;9.30;79.30;;;;;;4983052;28;20058;-86
2024/01/06 12:11:41;;;;;;;0.10;0.10;;;9.30;79.20;;;;;;4977268;28;20034;-86
2024/01/06 12:14:06;;;;;;;0.10;0.10;;;9.30;78.40;;;;;;4980408;28;20030;-87
2024/01/06 12:16:32;;;;;;;0.10;0.10;;;9.30;78.80;;;;;;4996866;28;20533;-82
2024/01/06 12:19:00;;;;;;;0.10;0.10;;;9.20;78.00;;;;;;4993009;28;20074;-84
2024/01/06 12:21:27;;;;;;;0.10;0.10;;;9.20;78.50;;;;;;4994139;28;21289;-84
2024/01/06 12:23:53;;;;;;;0.10;0.10;;;9.10;78.00;;;;;;4980355;28;20058;-87
2024/01/06 12:26:19;;;;;;;0.10;0.10;;;9.30;78.30;;;;;;4991229;28;20050;-85
2024/01/06 12:28:45;;;;;;;0.10;0.10;;;9.50;77.80;;;;;;4996888;28;20030;-80
2024/01/06 12:31:12;;;;;;;0.10;0.10;;;9.50;78.30;;;;;;4993358;28;20066;-80
2024/01/06 12:33:41;;;;;;;0.10;0.10;;;9.60;78.30;;;;;;4993291;28;20486;-84
2024/01/06 12:36:17;;;;;;;0.10;0.10;;;9.70;77.50;;;;;;4996073;28;20117;-82
2024/01/06 12:38:42;;;;;;;0.10;0.10;;;9.70;77.40;;;;;;4992507;28;20097;-80
2024/01/06 12:41:08;;;;;;;0.10;0.10;;;9.70;77.80;;;;;;4993452;28;20150;-81
2024/01/06 12:43:34;;;;;;;0.10;0.10;;;9.70;77.20;;;;;;4989556;28;20038;-81
2024/01/06 12:46:00;;;;;;;0.10;0.10;;;9.80;76.90;;;;;;4992494;28;20049;-82
2024/01/06 12:48:25;;;;;;;0.10;0.10;;;9.80;76.50;;;;;;4993465;28;20048;-78
2024/01/06 12:50:51;;;;;;;0.10;0.10;;;10.00;76.50;;;;;;4997922;28;20026;-79
2024/01/06 12:53:17;;;;;;;0.10;0.10;;;10.00;75.80;;;;;;4973504;28;20042;-78
2024/01/06 12:55:43;;;;;;;0.15;0.15;;;10.10;75.30;;;;;;4992755;28;20030;-79
2024/01/06 12:58:09;;;;;;;0.10;0.10;;;10.20;75.30;;;;;;4993779;28;20038;-83
2024/01/06 13:00:35;;;;;;;0.10;0.10;;;10.10;74.30;;;;;;4992865;28;20056;-83
2024/01/06 13:03:04;;;;;;;0.10;0.10;;;10.00;74.70;;;;;;4987636;28;20141;-83
2024/01/06 13:05:30;;;;;;;0.10;0.10;;;9.80;75.70;;;;;;4991072;28;20145;-81
2024/01/06 13:07:57;;;;;;;0.10;0.10;;;9.70;75.00;;;;;;4974279;28;20058;-82
2024/01/06 13:10:23;;;;;;;0.10;0.10;;;9.70;75.30;;;;;;4993370;28;20098;-83
2024/01/06 13:12:49;;;;;;;0.10;0.10;;;9.70;75.20;;;;;;4991262;28;20050;-82
2024/01/06 13:15:14;;;;;;;0.10;0.10;;;9.70;74.70;;;;;;4992238;28;20045;-84
2024/01/06 13:17:40;;;;;;;0.10;0.10;;;9.70;75.10;;;;;;4995624;28;20452;-85
2024/01/06 13:20:07;;;;;;;0.10;0.10;;;9.70;74.40;;;;;;4975830;28;20128;-86
2024/01/06 13:22:33;;;;;;;0.10;0.10;;;9.90;74.90;;;;;;4977124;28;20649;-85
2024/01/06 13:24:59;;;;;;;0.10;0.10;;;10.10;74.80;;;;;;4991176;28;20871;-85
2024/01/06 13:27:27;;;;;;;0.10;0.10;;;10.20;73.90;;;;;;4986479;28;20026;-84
2024/01/06 13:29:53;;;;;;;0.10;0.10;;;10.20;74.10;;;;;;4977114;28;20387;-85
2024/01/06 13:32:19;;;;;;;0.10;0.10;;;10.20;74.10;;;;;;4969814;28;20480;-85
2024/01/06 13:34:44;;;;;;;0.10;0.10;;;10.30;73.50;;;;;;4972462;28;20040;-85
2024/01/06 13:37:10;;;;;;;0.10;0.10;;;10.30;74.00;;;;;;4986762;28;20035;-84
2024/01/06 13:39:36;;;;;;;0.10;0.10;;;10.00;74.00;;;;;;4972560;28;20060;-84
2024/01/06 13:42:03;;;;;;;0.10;0.10;;;9.80;73.70;;;;;;4977319;28;20099;-86
2024/01/06 13:44:39;;;;;;;0.10;0.10;;;9.60;73.50;;;;;;4970755;28;20064;-84
2024/01/06 13:47:05;;;;;;;0.10;0.10;;;9.50;74.00;;;;;;4972613;28;20481;-84
2024/01/06 13:49:33;;;;;;;0.20;0.20;;;9.50;74.20;;;;;;5002515;28;20042;-85
2024/01/06 13:51:58;;;;;;;0.10;0.10;;;9.70;73.90;;;;;;4995583;28;20030;-85
2024/01/06 13:54:24;;;;;;;0.10;0.10;;;9.80;73.50;;;;;;4979891;28;20081;-84
2024/01/06 13:56:51;;;;;;;0.10;0.10;;;10.00;73.00;;;;;;4995250;28;20509;-83
2024/01/06 13:59:17;;;;;;;0.10;0.10;;;10.20;73.20;;;;;;4994881;28;20022;-84
2024/01/06 14:01:43;;;;;;;0.10;0.10;;;10.10;73.30;;;;;;4992317;28;20053;-83
2024/01/06 14:04:08;;;;;;;0.10;0.10;;;10.00;73.30;;;;;;4991168;28;20033;-84
2024/01/06 14:06:34;;;;;;;0.10;0.10;;;9.80;73.00;;;;;;4976540;28;20449;-83
2024/01/06 14:09:00;;;;;;;0.10;0.10;;;9.80;73.30;;;;;;4992318;28;20019;-84
2024/01/06 14:11:26;;;;;;;0.10;0.10;;;9.80;72.80;;;;;;4993650;28;20390;-84
2024/01/06 14:13:53;;;;;;;0.10;0.10;;;9.90;73.60;;;;;;4974057;28;20027;-86
2024/01/06 14:16:20;;;;;;;0.00;0.00;;;9.80;73.70;;;;;;4983245;28;20038;-87
2024/01/06 14:18:46;;;;;;;0.10;0.10;;;9.70;73.30;;;;;;4977382;28;20038;-84
2024/01/06 14:21:15;;;;;;;0.10;0.10;;;9.60;73.60;;;;;;4993786;28;20039;-85
2024/01/06 14:23:44;;;;;;;0.10;0.10;;;9.60;73.10;;;;;;4995006;28;20478;-86
2024/01/06 14:26:10;;;;;;;0.10;0.10;;;9.50;73.70;;;;;;4990648;28;20081;-82
2024/01/06 14:28:36;;;;;;;0.10;0.10;;;9.50;73.70;;;;;;4986286;28;20035;-89
2024/01/06 14:31:01;;;;;;;0.10;0.10;;;9.40;73.60;;;;;;4986253;28;20417;-84
2024/01/06 14:33:27;;;;;;;0.10;0.10;;;9.30;73.70;;;;;;4989773;28;20026;-87
2024/01/06 14:35:53;;;;;;;0.10;0.10;;;9.40;74.40;;;;;;4977990;28;20026;-85
2024/01/06 14:38:19;;;;;;;0.10;0.10;;;9.40;73.90;;;;;;4997911;28;20069;-83
2024/01/06 14:40:45;;;;;;;0.10;0.10;;;9.30;73.40;;;;;;4999133;28;20034;-85
2024/01/06 14:43:10;;;;;;;0.10;0.10;;;9.20;73.70;;;;;;4987853;28;20026;-85
2024/01/06 14:45:36;;;;;;;0.10;0.10;;;9.10;73.70;;;;;;4998049;28;20030;-86
2024/01/06 14:48:02;;;;;;;0.10;0.10;;;8.90;74.00;;;;;;4981434;28;20027;-86
2024/01/06 14:50:28;;;;;;;0.10;0.10;;;8.90;73.50;;;;;;4995783;28;20034;-86
2024/01/06 14:52:53;;;;;;;0.10;0.10;;;8.80;74.10;;;;;;4986225;28;20073;-86
2024/01/06 14:55:19;;;;;;;0.10;0.10;;;8.70;74.10;;;;;;4981618;28;20026;-87
2024/01/06 14:57:44;;;;;;;0.10;0.10;;;8.70;74.30;;;;;;4988709;28;20057;-87
2024/01/06 15:00:11;;;;;;;0.10;0.10;;;8.70;73.80;;;;;;4997328;28;20517;-87
2024/01/06 15:02:37;;;;;;;0.10;0.10;;;8.60;73.80;;;;;;4997920;28;20390;-85
2024/01/06 15:05:04;;;;;;;0.10;0.10;;;8.50;74.10;;;;;;4989435;28;20038;-85
2024/01/06 15:07:31;;;;;;;0.10;0.10;;;8.50;73.90;;;;;;4980543;28;20018;-85
2024/01/06 15:10:00;;;;;;;0.10;0.10;;;8.50;73.50;;;;;;4979121;28;20056;-86
2024/01/06 15:12:26;;;;;;;0.10;0.10;;;8.60;73.20;;;;;;4976487;28;20033;-85
2024/01/06 15:14:53;;;;;;;0.10;0.10;;;8.60;72.00;;;;;;4977661;28;20031;-84
2024/01/06 15:17:19;;;;;;;0.10;0.10;;;8.70;72.50;;;;;;4982414;28;20022;-85
2024/01/06 15:19:45;;;;;;;0.10;0.10;;;8.70;72.00;;;;;;4993660;28;20041;-88
2024/01/06 15:22:11;;;;;;;0.10;0.10;;;8.70;71.90;;;;;;4998485;28;20021;-88
2024/01/06 15:24:37;;;;;;;0.10;0.10;;;8.70;71.60;;;;;;4995355;28;20085;-86
2024/01/06 15:27:03;;;;;;;0.10;0.10;;;8.70;71.70;;;;;;4980572;28;20027;-87
2024/01/06 15:29:29;;;;;;;0.10;0.10;;;8.70;71.90;;;;;;5001022;28;20081;-85
2024/01/06 15:31:56;;;;;;;0.10;0.10;;;8.70;72.10;;;;;;4983652;28;20069;-87
2024/01/06 15:34:25;;;;;;;0.10;0.10;;;8.70;72.10;;;;;;4986848;28;20033;-85
2024/01/06 15:36:51;;;;;;;0.10;0.10;;;8.70;71.80;;;;;;4993253;28;20143;-82
2024/01/06 15:39:17;;;;;;;0.10;0.10;;;8.70;72.00;;;;;;5014231;28;20056;-84
2024/01/06 15:41:43;;;;;;;0.10;0.10;;;8.60;71.90;;;;;;4982570;28;20030;-84
2024/01/06 15:44:09;;;;;;;0.10;0.10;;;8.50;72.30;;;;;;4989323;28;20041;-88
2024/01/06 15:46:34;;;;;;;0.10;0.10;;;8.40;72.60;;;;;;5008093;28;20018;-82
2024/01/06 15:49:00;;;;;;;0.10;0.10;;;8.40;73.20;;;;;;4986635;28;20416;-81
2024/01/06 15:51:26;;;;;;;0.10;0.10;;;8.40;73.50;;;;;;4980745;28;20081;-81
2024/01/06 15:53:51;;;;;;;0.10;0.10;;;8.40;73.50;;;;;;4998609;28;20441;-81
2024/01/06 15:56:17;;;;;;;0.10;0.10;;;8.30;73.20;;;;;;4980944;28;20061;-80
2024/01/06 15:58:43;;;;;;;0.10;0.10;;;8.30;73.80;;;;;;4979589;28;20066;-82
2024/01/06 16:01:09;;;;;;;0.10;0.10;;;8.20;74.10;;;;;;4997655;28;20038;-81
2024/01/06 16:03:34;;;;;;;0.10;0.10;;;8.20;74.10;;;;;;4990567;28;20031;-83
2024/01/06 16:06:01;;;;;;;0.10;0.10;;;8.20;74.30;;;;;;4993593;28;20026;-86
2024/01/06 16:08:27;;;;;;;0.10;0.10;;;8.20;74.30;;;;;;4986916;28;20034;-82
2024/01/06 16:10:54;;;;;;;0.10;0.10;;;8.10;74.60;;;;;;4987321;28;20026;-85
2024/01/06 16:13:19;;;;;;;0.10;0.10;;;8.00;74.90;;;;;;4996438;28;20100;-84
2024/01/06 16:15:47;;;;;;;0.10;0.10;;;8.00;75.10;;;;;;4997085;28;20030;-84
2024/01/06 16:18:13;;;;;;;0.10;0.10;;;8.00;75.40;;;;;;4978917;28;20037;-79
2024/01/06 16:20:39;;;;;;;0.10;0.10;;;7.90;75.50;;;;;;4994733;28;20393;-82
2024/01/06 16:23:04;;;;;;;0.10;0.10;;;7.90;75.70;;;;;;4998179;28;20080;-79
2024/01/06 16:25:31;;;;;;;0.10;0.10;;;7.90;75.90;;;;;;4992909;28;20030;-86
2024/01/06 16:27:56;;;;;;;0.10;0.10;;;7.90;76.10;;;;;;4990322;28;20018;-85
2024/01/06 16:30:22;;;;;;;0.10;0.10;;;7.80;76.10;;;;;;4975766;28;20031;-86
2024/01/06 16:32:49;;;;;;;0.10;0.10;;;7.80;76.50;;;;;;4981981;28;20113;-86
2024/01/06 16:35:14;;;;;;;0.10;0.10;;;7.70;76.50;;;;;;4995511;28;20030;-85
2024/01/06 16:37:40;;;;;;;0.10;0.10;;;7.70;76.70;;;;;;4993745;28;20038;-86
2024/01/06 16:40:10;;;;;;;0.10;0.10;;;7.70;77.00;;;;;;4995990;28;20026;-86
2024/01/06 16:42:38;;;;;;;0.10;0.10;;;7.70;77.10;;;;;;4994601;28;20018;-84
2024/01/06 16:45:05;;;;;;;0.10;0.10;;;7.70;77.20;;;;;;4975230;28;20034;-85
2024/01/06 16:47:30;;;;;;;0.10;0.10;;;7.60;77.20;;;;;;4989450;28;20367;-80
2024/01/06 16:49:56;;;;;;;0.10;0.10;;;7.60;77.30;;;;;;4991966;28;20114;-79
2024/01/06 16:52:22;;;;;;;0.10;0.10;;;7.50;77.40;;;;;;4992869;28;20019;-79
2024/01/06 16:54:48;;;;;;;0.10;0.10;;;7.60;77.50;;;;;;5014987;28;20034;-80
2024/01/06 16:57:13;;;;;;;0.10;0.10;;;7.60;77.40;;;;;;4996879;28;20038;-80
2024/01/06 16:59:41;;;;;;;0.10;0.10;;;7.60;77.50;;;;;;4993811;28;20042;-79
2024/01/06 17:02:07;;;;;;;0.10;0.10;;;7.60;77.60;;;;;;4987988;28;20053;-80
2024/01/06 17:04:34;;;;;;;0.10;0.10;;;7.60;77.50;;;;;;5000853;28;20029;-80
2024/01/06 17:07:04;;;;;;;0.10;0.10;;;7.60;77.50;;;;;;5006047;28;20622;-88
2024/01/06 17:09:30;;;;;;;0.10;0.10;;;7.60;77.60;;;;;;5001393;28;20022;-78
2024/01/06 17:11:56;;;;;;;0.10;0.10;;;7.60;77.60;;;;;;5006285;28;20045;-79
2024/01/06 17:14:22;;;;;;;0.10;0.10;;;7.70;77.90;;;;;;4999674;28;20516;-77
2024/01/06 17:16:48;;;;;;;0.10;0.10;;;7.70;77.80;;;;;;5005648;28;20023;-77
2024/01/06 17:19:14;;;;;;;0.10;0.10;;;7.70;77.40;;;;;;4983378;28;20398;-77
2024/01/06 17:21:40;;;;;;;0.10;0.10;;;7.70;77.50;;;;;;5000617;28;20033;-77
2024/01/06 17:24:06;;;;;;;0.10;0.10;;;7.70;77.40;;;;;;4994918;28;20173;-81
2024/01/06 17:26:31;;;;;;;0.10;0.10;;;7.70;77.50;;;;;;4985968;28;20406;-80
2024/01/06 17:28:57;;;;;;;0.10;0.10;;;7.70;77.40;;;;;;4999362;28;20030;-77
2024/01/06 17:31:23;;;;;;;0.10;0.10;;;7.70;77.40;;;;;;4992692;28;20093;-79
2024/01/06 17:33:50;;;;;;;0.10;0.10;;;7.70;77.40;;;;;;4992295;28;20041;-75
2024/01/06 17:36:16;;;;;;;0.10;0.10;;;7.70;77.60;;;;;;4995831;28;20036;-75
2024/01/06 17:38:42;;;;;;;0.10;0.10;;;7.70;77.20;;;;;;5000958;28;20520;-75
2024/01/06 17:41:08;;;;;;;0.10;0.10;;;7.60;77.10;;;;;;4982625;28;20038;-76
2024/01/06 17:43:34;;;;;;;0.10;0.10;;;7.50;77.40;;;;;;5000314;28;20027;-76
2024/01/06 17:45:59;;;;;;;0.10;0.10;;;7.50;77.40;;;;;;4999644;28;20109;-73
2024/01/06 17:48:25;;;;;;;0.10;0.10;;;7.50;77.70;;;;;;5001164;28;20053;-75
2024/01/06 17:50:50;;;;;;;0.10;0.10;;;7.40;77.60;;;;;;4996638;28;20061;-73
2024/01/06 17:53:16;;;;;;;0.10;0.10;;;7.30;77.40;;;;;;4984765;28;20030;-73
2024/01/06 17:55:42;;;;;;;0.10;0.10;;;7.30;77.80;;;;;;4975237;28;20535;-74
2024/01/06 17:58:08;;;;;;;0.10;0.10;;;7.30;77.60;;;;;;4993140;28;20030;-73
2024/01/06 18:00:33;;;;;;;0.10;0.10;;;7.20;77.50;;;;;;4996465;28;20046;-74
2024/01/06 18:02:59;;;;;;;0.10;0.10;;;7.20;77.50;;;;;;4976446;28;20026;-73
2024/01/06 18:05:25;;;;;;;0.10;0.10;;;7.20;77.60;;;;;;4976539;28;20034;-73
2024/01/06 18:07:50;;;;;;;0.10;0.10;;;7.20;77.30;;;;;;4988016;28;20057;-73
2024/01/06 18:10:16;;;;;;;0.10;0.10;;;7.10;77.50;;;;;;4993461;28;20101;-74
2024/01/06 18:12:42;;;;;;;0.10;0.10;;;7.10;77.40;;;;;;4996736;28;20030;-73
2024/01/06 18:15:07;;;;;;;0.10;0.10;;;7.00;77.50;;;;;;4978233;28;20069;-77
2024/01/06 18:17:38;;;;;;;0.10;0.10;;;7.00;77.20;;;;;;4985710;28;20022;-75
2024/01/06 18:20:05;;;;;;;0.10;0.10;;;7.00;77.40;;;;;;4992229;28;20072;-75
2024/01/06 18:22:31;;;;;;;0.10;0.10;;;7.00;77.40;;;;;;4982470;28;20754;-74